createdAt,value
2023-05-03T00:00:51.431Z,4.50
2023-05-03T00:01:51.453Z,5.90
2023-05-03T00:02:51.421Z,5.50
2023-05-03T00:03:51.403Z,6.50
2023-05-03T00:04:51.422Z,5.20
2023-05-03T00:05:51.475Z,7.10
2023-05-03T00:06:51.474Z,5.70
2023-05-03T00:07:51.370Z,4.00
2023-05-03T00:08:51.390Z,7.30
2023-05-03T00:09:51.349Z,7.50
2023-05-03T00:10:51.346Z,6.00
2023-05-03T00:11:51.326Z,6.40
2023-05-03T00:12:51.317Z,6.80
2023-05-03T00:13:51.312Z,5.40
2023-05-03T00:14:51.298Z,5.30
2023-05-03T00:15:51.363Z,5.20
2023-05-03T00:16:51.318Z,7.40
2023-05-03T00:17:51.328Z,7.00
2023-05-03T00:18:51.267Z,6.80
2023-05-03T00:19:51.256Z,7.80
2023-05-03T00:20:51.270Z,6.80
2023-05-03T00:21:51.233Z,7.00
2023-05-03T00:22:51.237Z,8.40
2023-05-03T00:23:51.214Z,5.90
2023-05-03T00:24:51.207Z,7.30
2023-05-03T00:25:51.195Z,5.40
2023-05-03T00:26:51.181Z,5.40
2023-05-03T00:27:51.175Z,5.10
2023-05-03T00:28:51.170Z,6.30
2023-05-03T00:29:51.176Z,6.00
2023-05-03T00:30:51.198Z,7.40
2023-05-03T00:31:51.142Z,6.00
2023-05-03T00:32:51.186Z,6.60
2023-05-03T00:33:51.117Z,6.90
2023-05-03T00:34:51.111Z,6.20
2023-05-03T00:35:51.100Z,5.00
2023-05-03T00:36:51.091Z,6.70
2023-05-03T00:37:51.160Z,5.00
2023-05-03T00:38:51.080Z,4.80
2023-05-03T00:39:51.063Z,4.50
2023-05-03T00:40:51.061Z,6.80
2023-05-03T00:41:51.049Z,5.40
2023-05-03T00:42:51.035Z,6.50
2023-05-03T00:43:51.027Z,7.50
2023-05-03T00:44:51.417Z,4.70
2023-05-03T00:45:51.148Z,7.90
2023-05-03T00:46:51.032Z,5.40
2023-05-03T00:47:51.027Z,5.70
2023-05-03T00:48:50.971Z,7.50
2023-05-03T00:49:50.968Z,7.20
2023-05-03T00:50:50.958Z,5.80
2023-05-03T00:51:50.953Z,6.80
2023-05-03T00:52:50.937Z,7.90
2023-05-03T00:53:50.928Z,5.90
2023-05-03T00:54:50.920Z,6.00
2023-05-03T00:55:50.914Z,7.40
2023-05-03T00:56:52.159Z,5.80
2023-05-03T00:57:50.894Z,8.20
2023-05-03T00:58:50.879Z,7.80
2023-05-03T00:59:50.869Z,7.20
2023-05-03T01:00:50.858Z,6.60
2023-05-03T01:01:50.967Z,8.10
2023-05-03T01:02:50.886Z,5.10
2023-05-03T01:03:50.961Z,8.60
2023-05-03T01:04:50.828Z,8.80
2023-05-03T01:05:50.808Z,8.20
2023-05-03T01:06:50.843Z,5.60
2023-05-03T01:07:50.799Z,8.80
2023-05-03T01:08:50.830Z,7.20
2023-05-03T01:09:50.770Z,7.30
2023-05-03T01:10:50.787Z,5.20
2023-05-03T01:11:50.748Z,6.00
2023-05-03T01:12:50.739Z,5.50
2023-05-03T01:13:50.758Z,6.60
2023-05-03T01:14:50.725Z,8.20
2023-05-03T01:15:50.818Z,6.90
2023-05-03T01:16:50.696Z,9.60
2023-05-03T01:17:50.755Z,8.10
2023-05-03T01:18:50.678Z,5.80
2023-05-03T01:19:50.680Z,6.40
2023-05-03T01:20:50.663Z,8.30
2023-05-03T01:21:50.693Z,7.90
2023-05-03T01:22:50.669Z,7.20
2023-05-03T01:23:50.627Z,6.80
2023-05-03T01:24:50.619Z,5.80
2023-05-03T01:25:50.610Z,7.80
2023-05-03T01:26:50.602Z,6.40
2023-05-03T01:27:50.604Z,6.30
2023-05-03T01:28:50.600Z,7.20
2023-05-03T01:29:50.597Z,6.60
2023-05-03T01:30:50.563Z,7.90
2023-05-03T01:31:50.587Z,6.50
2023-05-03T01:32:50.582Z,6.80
2023-05-03T01:33:50.529Z,7.60
2023-05-03T01:34:50.520Z,6.70
2023-05-03T01:35:50.510Z,8.30
2023-05-03T01:36:50.515Z,6.70
2023-05-03T01:37:50.493Z,8.10
2023-05-03T01:38:50.476Z,7.70
2023-05-03T01:39:50.468Z,6.70
2023-05-03T01:40:50.459Z,8.20
2023-05-03T01:41:50.460Z,6.60
2023-05-03T01:42:50.445Z,7.30
2023-05-03T01:43:50.428Z,9.70
2023-05-03T01:44:50.419Z,7.10
2023-05-03T01:45:50.430Z,9.60
2023-05-03T01:46:50.397Z,8.30
2023-05-03T01:47:50.435Z,7.60
2023-05-03T01:48:50.380Z,5.10
2023-05-03T01:49:50.382Z,7.70
2023-05-03T01:50:50.357Z,8.00
2023-05-03T01:51:50.341Z,8.30
2023-05-03T01:52:50.337Z,6.00
2023-05-03T01:53:50.326Z,7.20
2023-05-03T01:54:50.314Z,6.40
2023-05-03T01:55:50.306Z,8.30
2023-05-03T01:56:50.296Z,7.70
2023-05-03T01:57:50.286Z,7.20
2023-05-03T01:58:50.267Z,7.90
2023-05-03T01:59:50.276Z,5.80
2023-05-03T02:00:50.288Z,7.10
2023-05-03T02:01:50.243Z,5.60
2023-05-03T02:02:50.302Z,6.70
2023-05-03T02:03:50.219Z,8.50
2023-05-03T02:04:50.392Z,7.70
2023-05-03T02:05:50.204Z,7.30
2023-05-03T02:06:50.233Z,7.40
2023-05-03T02:07:50.180Z,6.40
2023-05-03T02:08:50.174Z,7.40
2023-05-03T02:09:50.154Z,8.80
2023-05-03T02:10:50.148Z,7.20
2023-05-03T02:11:50.138Z,7.10
2023-05-03T02:12:50.135Z,6.10
2023-05-03T02:13:50.137Z,10.70
2023-05-03T02:14:50.121Z,8.70
2023-05-03T02:15:50.129Z,5.90
2023-05-03T02:16:50.122Z,8.30
2023-05-03T02:17:50.134Z,6.70
2023-05-03T02:18:50.077Z,10.80
2023-05-03T02:19:50.055Z,8.00
2023-05-03T02:20:50.055Z,7.60
2023-05-03T02:21:50.040Z,9.40
2023-05-03T02:22:50.041Z,8.10
2023-05-03T02:23:50.022Z,7.60
2023-05-03T02:24:50.002Z,8.80
2023-05-03T02:25:49.988Z,7.10
2023-05-03T02:26:49.982Z,6.80
2023-05-03T02:27:49.976Z,9.00
2023-05-03T02:28:49.966Z,8.10
2023-05-03T02:29:49.955Z,6.50
2023-05-03T02:30:49.976Z,8.00
2023-05-03T02:31:49.934Z,5.90
2023-05-03T02:32:49.952Z,7.70
2023-05-03T02:33:49.903Z,9.10
2023-05-03T02:34:49.892Z,7.10
2023-05-03T02:35:49.883Z,8.80
2023-05-03T02:36:49.874Z,8.50
2023-05-03T02:37:49.874Z,7.80
2023-05-03T02:38:49.847Z,8.40
2023-05-03T02:39:49.833Z,7.30
2023-05-03T02:40:49.886Z,7.90
2023-05-03T02:41:49.819Z,9.80
2023-05-03T02:42:49.806Z,8.90
2023-05-03T02:43:49.802Z,9.90
2023-05-03T02:44:49.781Z,11.10
2023-05-03T02:45:49.808Z,9.00
2023-05-03T02:46:49.798Z,9.10
2023-05-03T02:47:49.791Z,9.50
2023-05-03T02:48:49.753Z,11.30
2023-05-03T02:49:49.726Z,9.90
2023-05-03T02:50:49.715Z,13.50
2023-05-03T02:51:49.713Z,10.80
2023-05-03T02:52:49.707Z,10.00
2023-05-03T02:53:49.695Z,10.60
2023-05-03T02:54:49.709Z,11.60
2023-05-03T02:55:49.681Z,13.00
2023-05-03T02:56:49.649Z,10.40
2023-05-03T02:57:49.646Z,9.80
2023-05-03T02:58:49.632Z,11.20
2023-05-03T02:59:49.618Z,11.80
2023-05-03T03:00:49.609Z,10.70
2023-05-03T03:01:49.664Z,12.10
2023-05-03T03:02:49.613Z,9.80
2023-05-03T03:03:49.668Z,12.30
2023-05-03T03:04:49.568Z,10.00
2023-05-03T03:05:49.553Z,8.90
2023-05-03T03:06:49.589Z,11.10
2023-05-03T03:07:49.537Z,11.90
2023-05-03T03:08:49.521Z,12.20
2023-05-03T03:09:49.508Z,11.80
2023-05-03T03:10:49.501Z,8.50
2023-05-03T03:11:49.504Z,10.60
2023-05-03T03:12:49.495Z,10.60
2023-05-03T03:13:49.602Z,11.10
2023-05-03T03:14:49.446Z,12.50
2023-05-03T03:15:49.461Z,10.50
2023-05-03T03:16:49.427Z,10.00
2023-05-03T03:17:49.486Z,10.90
2023-05-03T03:18:49.411Z,11.70
2023-05-03T03:19:49.411Z,10.00
2023-05-03T03:20:49.391Z,12.00
2023-05-03T03:21:49.378Z,10.70
2023-05-03T03:22:49.390Z,11.70
2023-05-03T03:23:49.349Z,11.00
2023-05-03T03:24:49.353Z,10.40
2023-05-03T03:25:49.349Z,10.10
2023-05-03T03:26:49.324Z,9.90
2023-05-03T03:27:49.310Z,9.60
2023-05-03T03:28:49.305Z,10.90
2023-05-03T03:29:49.285Z,13.30
2023-05-03T03:30:49.270Z,12.00
2023-05-03T03:31:49.282Z,13.40
2023-05-03T03:32:49.315Z,12.30
2023-05-03T03:33:49.257Z,12.30
2023-05-03T03:34:49.224Z,10.70
2023-05-03T03:35:49.222Z,12.30
2023-05-03T03:36:49.215Z,12.50
2023-05-03T03:37:49.205Z,13.80
2023-05-03T03:38:49.186Z,13.40
2023-05-03T03:39:49.187Z,14.00
2023-05-03T03:40:49.159Z,11.70
2023-05-03T03:41:49.158Z,13.00
2023-05-03T03:42:49.163Z,11.90
2023-05-03T03:43:49.131Z,12.60
2023-05-03T03:44:49.119Z,17.60
2023-05-03T03:45:49.123Z,13.00
2023-05-03T03:46:49.138Z,11.50
2023-05-03T03:47:50.861Z,12.70
2023-05-03T03:48:49.081Z,13.00
2023-05-03T03:49:49.069Z,12.10
2023-05-03T03:50:49.056Z,13.20
2023-05-03T03:51:49.037Z,13.50
2023-05-03T03:52:49.042Z,15.90
2023-05-03T03:53:49.022Z,13.40
2023-05-03T03:54:49.009Z,13.30
2023-05-03T03:55:48.999Z,12.40
2023-05-03T03:56:48.990Z,15.20
2023-05-03T03:57:48.971Z,12.70
2023-05-03T03:58:48.962Z,12.60
2023-05-03T03:59:48.962Z,13.90
2023-05-03T04:00:48.942Z,13.60
2023-05-03T04:01:48.965Z,13.50
2023-05-03T04:02:48.988Z,13.00
2023-05-03T04:03:48.983Z,14.60
2023-05-03T04:04:48.901Z,15.80
2023-05-03T04:05:48.890Z,9.50
2023-05-03T04:06:48.980Z,15.60
2023-05-03T04:07:48.877Z,12.20
2023-05-03T04:08:48.848Z,12.80
2023-05-03T04:09:48.849Z,14.40
2023-05-03T04:10:48.835Z,12.40
2023-05-03T04:11:48.822Z,11.80
2023-05-03T04:12:48.814Z,11.90
2023-05-03T04:13:48.800Z,12.00
2023-05-03T04:14:48.785Z,10.00
2023-05-03T04:15:48.777Z,9.70
2023-05-03T04:16:48.783Z,10.40
2023-05-03T04:17:48.770Z,12.00
2023-05-03T04:18:48.747Z,13.00
2023-05-03T04:19:48.766Z,11.50
2023-05-03T04:20:48.724Z,12.20
2023-05-03T04:21:48.714Z,9.40
2023-05-03T04:22:48.708Z,10.20
2023-05-03T04:23:48.694Z,10.80
2023-05-03T04:24:48.682Z,13.10
2023-05-03T04:25:48.870Z,9.70
2023-05-03T04:26:48.658Z,10.40
2023-05-03T04:27:48.652Z,10.00
2023-05-03T04:28:48.634Z,9.90
2023-05-03T04:29:48.627Z,7.80
2023-05-03T04:30:48.654Z,9.30
2023-05-03T04:31:48.603Z,10.60
2023-05-03T04:32:48.637Z,8.20
2023-05-03T04:33:48.590Z,8.50
2023-05-03T04:34:49.540Z,6.60
2023-05-03T04:35:48.566Z,8.10
2023-05-03T04:36:48.552Z,8.80
2023-05-03T04:37:48.542Z,7.40
2023-05-03T04:38:48.524Z,9.90
2023-05-03T04:39:48.530Z,7.90
2023-05-03T04:40:48.507Z,8.00
2023-05-03T04:41:48.512Z,6.10
2023-05-03T04:42:48.492Z,9.10
2023-05-03T04:43:48.476Z,8.80
2023-05-03T04:44:48.465Z,8.40
2023-05-03T04:45:48.488Z,10.80
2023-05-03T04:46:50.743Z,9.30
2023-05-03T04:47:48.483Z,11.90
2023-05-03T04:48:48.439Z,10.70
2023-05-03T04:49:48.413Z,12.60
2023-05-03T04:50:48.409Z,9.50
2023-05-03T04:51:48.412Z,10.70
2023-05-03T04:52:48.387Z,10.50
2023-05-03T04:53:48.507Z,10.60
2023-05-03T04:54:48.371Z,9.60
2023-05-03T04:55:48.362Z,11.80
2023-05-03T04:56:48.513Z,9.50
2023-05-03T04:57:48.351Z,9.40
2023-05-03T04:58:48.334Z,9.30
2023-05-03T04:59:48.336Z,10.30
2023-05-03T05:00:48.319Z,12.30
2023-05-03T05:01:48.406Z,11.50
2023-05-03T05:02:48.432Z,9.60
2023-05-03T05:03:48.443Z,10.10
2023-05-03T05:04:48.272Z,12.40
2023-05-03T05:05:48.269Z,9.50
2023-05-03T05:06:48.301Z,12.30
2023-05-03T05:07:48.247Z,11.20
2023-05-03T05:08:48.242Z,11.00
2023-05-03T05:09:48.220Z,11.00
2023-05-03T05:10:48.231Z,14.60
2023-05-03T05:11:48.217Z,12.20
2023-05-03T05:12:48.208Z,13.10
2023-05-03T05:13:48.198Z,14.40
2023-05-03T05:14:48.182Z,11.80
2023-05-03T05:15:48.206Z,14.40
2023-05-03T05:16:48.244Z,14.30
2023-05-03T05:17:48.311Z,14.90
2023-05-03T05:18:48.638Z,13.70
2023-05-03T05:19:48.147Z,14.30
2023-05-03T05:20:48.143Z,14.10
2023-05-03T05:21:48.143Z,14.50
2023-05-03T05:22:48.122Z,15.80
2023-05-03T05:23:48.127Z,13.70
2023-05-03T05:24:48.106Z,12.30
2023-05-03T05:25:48.105Z,12.50
2023-05-03T05:26:48.090Z,12.10
2023-05-03T05:27:48.100Z,12.60
2023-05-03T05:28:48.082Z,12.20
2023-05-03T05:29:48.069Z,12.30
2023-05-03T05:30:48.069Z,10.60
2023-05-03T05:31:48.097Z,11.10
2023-05-03T05:32:48.082Z,12.30
2023-05-03T05:33:48.041Z,12.60
2023-05-03T05:34:48.037Z,14.10
2023-05-03T05:35:48.020Z,11.90
2023-05-03T05:36:48.070Z,11.60
2023-05-03T05:37:48.017Z,12.90
2023-05-03T05:38:48.019Z,14.20
2023-05-03T05:39:48.011Z,12.80
2023-05-03T05:40:47.997Z,12.50
2023-05-03T05:41:47.983Z,12.70
2023-05-03T05:42:47.973Z,15.70
2023-05-03T05:43:47.967Z,13.20
2023-05-03T05:44:47.962Z,13.90
2023-05-03T05:45:47.968Z,13.80
2023-05-03T05:46:47.995Z,1999.90
2023-05-03T05:47:47.964Z,1999.90
2023-05-03T05:48:47.932Z,1999.90
2023-05-03T05:49:47.949Z,1999.90
2023-05-03T05:50:47.918Z,1999.90
2023-05-03T05:51:47.914Z,1999.90
2023-05-03T05:52:47.909Z,1999.90
2023-05-03T05:53:47.904Z,1999.90
2023-05-03T05:54:47.898Z,1999.90
2023-05-03T05:55:47.904Z,15.30
2023-05-03T05:56:47.887Z,15.00
2023-05-03T05:57:47.884Z,17.20
2023-05-03T05:58:47.873Z,16.10
2023-05-03T05:59:47.879Z,15.90
2023-05-03T06:00:47.865Z,16.10
2023-05-03T06:01:47.940Z,19.00
2023-05-03T06:02:47.976Z,16.20
2023-05-03T06:03:47.848Z,15.60
2023-05-03T06:04:47.877Z,16.50
2023-05-03T06:05:47.902Z,14.10
2023-05-03T06:06:47.921Z,15.70
2023-05-03T06:07:47.828Z,15.70
2023-05-03T06:08:47.832Z,17.40
2023-05-03T06:09:47.816Z,14.60
2023-05-03T06:10:47.816Z,18.60
2023-05-03T06:11:47.805Z,15.60
2023-05-03T06:12:47.802Z,15.70
2023-05-03T06:13:47.803Z,15.50
2023-05-03T06:15:01.469Z,13.50
2023-05-03T06:15:47.785Z,12.30
2023-05-03T06:16:47.866Z,14.00
2023-05-03T06:17:47.836Z,16.20
2023-05-03T06:18:47.771Z,16.30
2023-05-03T06:19:47.770Z,14.70
2023-05-03T06:20:47.760Z,14.20
2023-05-03T06:21:47.763Z,12.60
2023-05-03T06:22:47.744Z,14.30
2023-05-03T06:23:47.743Z,13.90
2023-05-03T06:24:47.837Z,15.50
2023-05-03T06:25:47.745Z,13.10
2023-05-03T06:26:47.733Z,11.90
2023-05-03T06:27:47.728Z,12.00
2023-05-03T06:28:47.749Z,13.50
2023-05-03T06:29:47.735Z,13.20
2023-05-03T06:30:47.740Z,14.40
2023-05-03T06:31:47.706Z,10.60
2023-05-03T06:32:47.751Z,13.00
2023-05-03T06:33:47.710Z,11.20
2023-05-03T06:34:47.705Z,12.40
2023-05-03T06:35:47.691Z,11.10
2023-05-03T06:36:47.690Z,14.70
2023-05-03T06:37:47.695Z,11.80
2023-05-03T06:38:47.703Z,8.80
2023-05-03T06:39:47.703Z,10.00
2023-05-03T06:40:47.669Z,12.60
2023-05-03T06:41:47.665Z,13.10
2023-05-03T06:42:47.666Z,9.50
2023-05-03T06:43:47.659Z,11.60
2023-05-03T06:44:47.654Z,9.70
2023-05-03T06:45:47.654Z,11.30
2023-05-03T06:46:47.693Z,10.80
2023-05-03T06:47:47.693Z,8.10
2023-05-03T06:48:47.699Z,9.30
2023-05-03T06:49:47.637Z,10.50
2023-05-03T06:50:47.626Z,11.40
2023-05-03T06:51:47.626Z,11.20
2023-05-03T06:52:47.618Z,10.20
2023-05-03T06:53:47.623Z,10.30
2023-05-03T06:54:47.615Z,11.10
2023-05-03T06:55:47.613Z,11.10
2023-05-03T06:56:47.709Z,8.40
2023-05-03T06:57:47.614Z,9.70
2023-05-03T06:58:47.612Z,8.10
2023-05-03T06:59:47.589Z,7.90
2023-05-03T07:00:47.589Z,9.70
2023-05-03T07:01:47.614Z,8.50
2023-05-03T07:02:47.644Z,7.10
2023-05-03T07:03:47.728Z,8.50
2023-05-03T07:04:47.587Z,9.00
2023-05-03T07:05:48.248Z,7.10
2023-05-03T07:06:55.993Z,6.90
2023-05-03T07:07:47.574Z,7.30
2023-05-03T07:08:47.560Z,7.50
2023-05-03T07:09:47.556Z,5.90
2023-05-03T07:10:47.569Z,6.60
2023-05-03T07:11:47.554Z,6.60
2023-05-03T07:12:47.560Z,8.10
2023-05-03T07:13:47.559Z,7.10
2023-05-03T07:14:47.540Z,5.80
2023-05-03T07:15:47.610Z,6.10
2023-05-03T07:16:47.614Z,5.40
2023-05-03T07:17:47.587Z,7.30
2023-05-03T07:18:47.539Z,5.50
2023-05-03T07:19:47.536Z,6.90
2023-05-03T07:20:47.537Z,5.90
2023-05-03T07:21:47.531Z,6.50
2023-05-03T07:22:47.526Z,5.80
2023-05-03T07:23:47.528Z,5.60
2023-05-03T07:24:47.543Z,5.50
2023-05-03T07:25:47.547Z,4.80
2023-05-03T07:26:48.991Z,5.10
2023-05-03T07:27:47.524Z,6.80
2023-05-03T07:28:47.517Z,5.90
2023-05-03T07:29:47.518Z,4.20
2023-05-03T07:30:47.518Z,6.40
2023-05-03T07:31:47.524Z,5.30
2023-05-03T07:32:47.609Z,8.30
2023-05-03T07:33:47.666Z,5.30
2023-05-03T07:34:47.510Z,7.10
2023-05-03T07:35:47.510Z,5.60
2023-05-03T07:36:47.522Z,6.50
2023-05-03T07:37:47.508Z,5.80
2023-05-03T07:38:47.500Z,4.90
2023-05-03T07:39:47.507Z,4.60
2023-05-03T07:40:47.500Z,4.40
2023-05-03T07:41:47.502Z,5.50
2023-05-03T07:42:47.508Z,4.80
2023-05-03T07:43:47.494Z,5.00
2023-05-03T07:44:47.588Z,8.90
2023-05-03T07:45:47.517Z,22.70
2023-05-03T07:46:47.551Z,8.70
2023-05-03T07:47:47.550Z,7.10
2023-05-03T07:48:47.496Z,7.80
2023-05-03T07:49:47.490Z,5.30
2023-05-03T07:50:47.488Z,4.80
2023-05-03T07:51:47.497Z,4.90
2023-05-03T07:52:47.508Z,6.40
2023-05-03T07:53:47.496Z,5.60
2023-05-03T07:54:47.669Z,4.60
2023-05-03T07:55:47.490Z,4.70
2023-05-03T07:56:47.486Z,5.00
2023-05-03T07:57:47.494Z,5.50
2023-05-03T07:58:51.010Z,4.90
2023-05-03T07:59:47.526Z,5.00
2023-05-03T08:00:47.491Z,5.40
2023-05-03T08:01:47.490Z,6.40
2023-05-03T08:02:47.659Z,4.10
2023-05-03T08:03:47.673Z,6.00
2023-05-03T08:04:47.901Z,4.40
2023-05-03T08:05:47.590Z,6.00
2023-05-03T08:06:47.519Z,6.20
2023-05-03T08:07:47.510Z,5.10
2023-05-03T08:08:47.559Z,5.00
2023-05-03T08:09:47.492Z,5.30
2023-05-03T08:10:47.497Z,5.60
2023-05-03T08:11:47.515Z,7.30
2023-05-03T08:12:47.493Z,6.60
2023-05-03T08:13:47.493Z,5.90
2023-05-03T08:14:47.500Z,6.40
2023-05-03T08:15:47.549Z,5.70
2023-05-03T08:16:47.503Z,7.50
2023-05-03T08:17:47.542Z,5.60
2023-05-03T08:18:47.505Z,5.80
2023-05-03T08:19:47.524Z,5.20
2023-05-03T08:20:47.504Z,4.30
2023-05-03T08:21:47.499Z,4.80
2023-05-03T08:22:47.500Z,6.50
2023-05-03T08:23:47.497Z,5.10
2023-05-03T08:24:47.498Z,4.60
2023-05-03T08:25:47.501Z,5.00
2023-05-03T08:26:47.490Z,4.30
2023-05-03T08:27:47.506Z,5.80
2023-05-03T08:28:47.492Z,5.80
2023-05-03T08:29:47.490Z,4.90
2023-05-03T08:30:47.488Z,6.00
2023-05-03T08:31:47.593Z,4.80
2023-05-03T08:32:47.506Z,6.00
2023-05-03T08:33:47.479Z,4.80
2023-05-03T08:34:47.484Z,5.20
2023-05-03T08:35:49.257Z,4.40
2023-05-03T08:36:47.471Z,5.50
2023-05-03T08:37:47.463Z,6.00
2023-05-03T08:38:47.463Z,4.80
2023-05-03T08:39:47.457Z,4.50
2023-05-03T08:40:47.462Z,5.90
2023-05-03T08:41:47.448Z,5.20
2023-05-03T08:42:47.445Z,4.70
2023-05-03T08:43:47.440Z,4.70
2023-05-03T08:44:47.439Z,5.10
2023-05-03T08:45:47.436Z,6.60
2023-05-03T08:46:47.466Z,5.10
2023-05-03T08:47:47.445Z,5.90
2023-05-03T08:48:47.414Z,4.40
2023-05-03T08:49:47.422Z,5.40
2023-05-03T08:50:47.402Z,7.10
2023-05-03T08:51:47.440Z,4.30
2023-05-03T08:52:47.390Z,4.60
2023-05-03T08:53:47.387Z,5.00
2023-05-03T08:54:47.373Z,6.60
2023-05-03T08:55:47.383Z,8.40
2023-05-03T08:56:47.378Z,5.60
2023-05-03T08:57:47.366Z,5.20
2023-05-03T08:58:47.358Z,4.80
2023-05-03T08:59:47.363Z,6.30
2023-05-03T09:00:47.351Z,4.70
2023-05-03T09:01:47.371Z,4.30
2023-05-03T09:02:47.390Z,6.20
2023-05-03T09:03:49.492Z,6.00
2023-05-03T09:04:47.331Z,8.90
2023-05-03T09:05:47.336Z,6.30
2023-05-03T09:06:47.373Z,4.90
2023-05-03T09:07:47.310Z,5.00
2023-05-03T09:08:47.331Z,6.20
2023-05-03T09:09:47.523Z,4.10
2023-05-03T09:10:47.299Z,5.70
2023-05-03T09:11:47.286Z,5.50
2023-05-03T09:12:47.293Z,5.20
2023-05-03T09:13:47.276Z,7.00
2023-05-03T09:14:47.283Z,4.60
2023-05-03T09:15:47.278Z,4.40
2023-05-03T09:16:49.830Z,5.00
2023-05-03T09:17:47.317Z,5.20
2023-05-03T09:18:47.256Z,5.60
2023-05-03T09:19:47.239Z,4.40
2023-05-03T09:20:47.241Z,6.00
2023-05-03T09:21:47.390Z,6.30
2023-05-03T09:22:47.243Z,6.70
2023-05-03T09:23:47.223Z,5.10
2023-05-03T09:24:47.223Z,4.70
2023-05-03T09:25:47.218Z,6.40
2023-05-03T09:26:47.266Z,5.00
2023-05-03T09:27:47.194Z,6.40
2023-05-03T09:28:47.189Z,5.60
2023-05-03T09:29:47.181Z,4.90
2023-05-03T09:30:47.202Z,4.40
2023-05-03T09:31:47.203Z,4.70
2023-05-03T09:32:47.195Z,4.30
2023-05-03T09:33:47.169Z,5.10
2023-05-03T09:34:47.162Z,5.00
2023-05-03T09:35:47.146Z,4.10
2023-05-03T09:36:47.166Z,3.40
2023-05-03T09:37:47.144Z,3.80
2023-05-03T09:38:47.131Z,4.10
2023-05-03T09:39:47.129Z,4.30
2023-05-03T09:40:47.147Z,4.60
2023-05-03T09:41:47.131Z,8.20
2023-05-03T09:42:47.125Z,7.90
2023-05-03T09:43:47.104Z,4.80
2023-05-03T09:44:47.111Z,6.40
2023-05-03T09:45:47.155Z,8.10
2023-05-03T09:46:47.111Z,13.20
2023-05-03T09:47:47.132Z,6.10
2023-05-03T09:48:47.074Z,5.00
2023-05-03T09:49:47.066Z,5.80
2023-05-03T09:50:47.075Z,7.00
2023-05-03T09:51:47.049Z,6.60
2023-05-03T09:52:47.054Z,6.30
2023-05-03T09:53:47.043Z,4.50
2023-05-03T09:54:47.077Z,5.70
2023-05-03T09:55:47.073Z,5.70
2023-05-03T09:56:47.035Z,6.00
2023-05-03T09:57:47.019Z,4.80
2023-05-03T09:58:47.015Z,5.40
2023-05-03T09:59:47.006Z,5.00
2023-05-03T10:00:47.000Z,4.80
2023-05-03T10:01:47.038Z,8.00
2023-05-03T10:02:46.998Z,6.70
2023-05-03T10:03:47.006Z,6.10
2023-05-03T10:04:46.980Z,5.50
2023-05-03T10:05:46.978Z,6.00
2023-05-03T10:06:47.041Z,5.20
2023-05-03T10:07:46.966Z,5.20
2023-05-03T10:08:46.958Z,5.60
2023-05-03T10:09:46.959Z,5.60
2023-05-03T10:10:46.942Z,6.30
2023-05-03T10:11:46.942Z,4.90
2023-05-03T10:12:46.935Z,6.10
2023-05-03T10:13:46.925Z,6.30
2023-05-03T10:14:46.922Z,5.90
2023-05-03T10:15:46.934Z,5.40
2023-05-03T10:16:46.908Z,6.40
2023-05-03T10:17:48.465Z,4.40
2023-05-03T10:18:46.897Z,4.10
2023-05-03T10:19:46.898Z,5.40
2023-05-03T10:20:46.884Z,5.90
2023-05-03T10:21:46.884Z,8.30
2023-05-03T10:22:46.868Z,4.70
2023-05-03T10:23:46.871Z,6.00
2023-05-03T10:24:46.871Z,7.30
2023-05-03T10:25:46.862Z,7.10
2023-05-03T10:26:46.855Z,9.50
2023-05-03T10:27:46.865Z,4.60
2023-05-03T10:28:46.880Z,4.70
2023-05-03T10:29:46.834Z,4.20
2023-05-03T10:30:46.822Z,4.30
2023-05-03T10:31:47.042Z,3.80
2023-05-03T10:32:46.834Z,7.10
2023-05-03T10:33:46.813Z,4.50
2023-05-03T10:34:46.808Z,4.40
2023-05-03T10:35:46.800Z,3.90
2023-05-03T10:36:49.756Z,6.40
2023-05-03T10:37:46.856Z,5.00
2023-05-03T10:38:46.781Z,6.20
2023-05-03T10:39:46.768Z,6.40
2023-05-03T10:40:46.764Z,4.40
2023-05-03T10:41:46.771Z,4.80
2023-05-03T10:42:46.753Z,5.40
2023-05-03T10:43:46.749Z,4.30
2023-05-03T10:44:46.746Z,4.60
2023-05-03T10:45:48.808Z,4.90
2023-05-03T10:46:46.833Z,5.40
2023-05-03T10:47:46.753Z,4.70
2023-05-03T10:48:46.720Z,7.30
2023-05-03T10:49:46.716Z,6.10
2023-05-03T10:50:46.718Z,6.30
2023-05-03T10:51:46.706Z,6.20
2023-05-03T10:52:46.694Z,5.20
2023-05-03T10:53:46.697Z,7.20
2023-05-03T10:54:46.685Z,4.00
2023-05-03T10:55:46.677Z,7.10
2023-05-03T10:56:46.842Z,6.10
2023-05-03T10:57:46.679Z,5.00
2023-05-03T10:58:46.665Z,7.30
2023-05-03T10:59:46.657Z,5.80
2023-05-03T11:00:46.651Z,6.30
2023-05-03T11:01:46.682Z,5.10
2023-05-03T11:02:46.666Z,4.40
2023-05-03T11:03:46.630Z,7.70
2023-05-03T11:04:46.640Z,5.60
2023-05-03T11:05:46.646Z,6.30
2023-05-03T11:06:46.668Z,4.70
2023-05-03T11:07:46.607Z,4.80
2023-05-03T11:08:46.609Z,4.90
2023-05-03T11:09:47.705Z,5.90
2023-05-03T11:10:46.589Z,5.00
2023-05-03T11:11:46.592Z,6.30
2023-05-03T11:12:46.635Z,5.40
2023-05-03T11:13:46.600Z,5.70
2023-05-03T11:14:46.568Z,6.40
2023-05-03T11:15:48.307Z,8.20
2023-05-03T11:16:46.588Z,4.20
2023-05-03T11:17:46.576Z,4.10
2023-05-03T11:18:46.535Z,6.90
2023-05-03T11:19:46.529Z,6.00
2023-05-03T11:20:46.523Z,5.70
2023-05-03T11:21:47.104Z,5.50
2023-05-03T11:22:46.518Z,7.40
2023-05-03T11:23:46.509Z,5.50
2023-05-03T11:24:46.509Z,5.10
2023-05-03T11:25:46.490Z,4.80
2023-05-03T11:26:46.505Z,6.80
2023-05-03T11:27:47.809Z,4.50
2023-05-03T11:28:46.474Z,6.10
2023-05-03T11:29:46.469Z,5.70
2023-05-03T11:30:46.461Z,7.90
2023-05-03T11:31:46.511Z,5.30
2023-05-03T11:32:46.481Z,5.70
2023-05-03T11:33:48.048Z,4.70
2023-05-03T11:34:46.434Z,6.30
2023-05-03T11:35:46.424Z,6.30
2023-05-03T11:36:46.426Z,6.70
2023-05-03T11:37:46.415Z,6.50
2023-05-03T11:38:46.414Z,6.40
2023-05-03T11:39:46.402Z,34.00
2023-05-03T11:40:46.412Z,5.80
2023-05-03T11:41:46.387Z,6.80
2023-05-03T11:42:46.383Z,4.40
2023-05-03T11:43:46.378Z,7.80
2023-05-03T11:44:46.390Z,3.50
2023-05-03T11:45:46.543Z,6.90
2023-05-03T11:46:46.500Z,5.30
2023-05-03T11:47:46.401Z,6.10
2023-05-03T11:48:46.371Z,6.70
2023-05-03T11:49:46.339Z,6.80
2023-05-03T11:50:46.349Z,4.50
2023-05-03T11:51:48.653Z,6.40
2023-05-03T11:52:46.332Z,6.60
2023-05-03T11:53:46.316Z,5.00
2023-05-03T11:54:46.307Z,7.20
2023-05-03T11:55:46.306Z,5.50
2023-05-03T11:56:46.295Z,5.10
2023-05-03T11:57:46.295Z,4.50
2023-05-03T11:58:46.288Z,6.40
2023-05-03T11:59:46.283Z,5.70
2023-05-03T12:00:46.417Z,5.70
2023-05-03T12:01:46.273Z,3.90
2023-05-03T12:02:46.449Z,4.90
2023-05-03T12:03:46.428Z,3.90
2023-05-03T12:04:46.673Z,6.30
2023-05-03T12:05:46.616Z,6.40
2023-05-03T12:06:47.153Z,6.30
2023-05-03T12:07:46.371Z,6.70
2023-05-03T12:08:47.042Z,5.50
2023-05-03T12:09:52.937Z,6.60
2023-05-03T12:10:46.712Z,6.60
2023-05-03T12:11:47.923Z,6.70
2023-05-03T12:12:48.847Z,4.70
2023-05-03T12:13:47.741Z,4.80
2023-05-03T12:14:46.317Z,5.60
2023-05-03T12:16:46.375Z,6.60
2023-05-03T12:17:49.036Z,4.70
2023-05-03T12:19:48.858Z,6.60
2023-05-03T12:22:46.430Z,5.20
2023-05-03T12:23:46.345Z,6.50
2023-05-03T12:24:48.535Z,6.20
2023-05-03T12:25:47.583Z,5.60
2023-05-03T12:26:47.789Z,6.50
2023-05-03T12:27:49.877Z,8.00
2023-05-03T12:28:46.140Z,7.30
2023-05-03T12:30:01.624Z,5.00
2023-05-03T12:30:46.674Z,4.60
2023-05-03T12:31:49.105Z,6.60
2023-05-03T12:32:46.228Z,6.60
2023-05-03T12:34:01.705Z,4.80
2023-05-03T12:34:47.099Z,6.60
2023-05-03T12:35:47.922Z,6.60
2023-05-03T12:36:48.778Z,4.70
2023-05-03T12:37:49.214Z,5.10
2023-05-03T12:38:46.285Z,5.30
2023-05-03T12:39:52.125Z,4.70
2023-05-03T12:40:46.132Z,7.30
2023-05-03T12:42:46.056Z,6.30
2023-05-03T12:43:46.104Z,5.90
2023-05-03T12:44:48.117Z,4.70
2023-05-03T12:45:51.395Z,5.20
2023-05-03T12:46:46.242Z,6.80
2023-05-03T12:47:49.859Z,5.50
2023-05-03T12:48:46.861Z,5.60
2023-05-03T12:49:46.512Z,5.30
2023-05-03T12:50:46.212Z,4.70
2023-05-03T12:51:52.012Z,5.50
2023-05-03T12:52:46.123Z,6.50
2023-05-03T12:53:47.199Z,6.80
2023-05-03T12:54:48.576Z,5.10
2023-05-03T12:55:50.951Z,7.60
2023-05-03T12:57:51.243Z,4.40
2023-05-03T12:59:07.501Z,4.80
2023-05-03T12:59:51.991Z,7.30
2023-05-03T13:01:13.275Z,4.40
2023-05-03T13:03:58.245Z,5.90
2023-05-03T13:04:56.688Z,6.00
2023-05-03T13:05:46.174Z,4.30
2023-05-03T13:06:46.118Z,3.80
2023-05-03T13:07:46.162Z,4.80
2023-05-03T13:08:49.869Z,5.80
2023-05-03T13:10:45.933Z,5.00
2023-05-03T13:11:47.440Z,4.50
2023-05-03T13:12:45.846Z,5.60
2023-05-03T13:13:45.843Z,5.90
2023-05-03T13:14:45.830Z,6.70
2023-05-03T13:15:45.825Z,7.50
2023-05-03T13:16:45.962Z,6.90
2023-05-03T13:17:47.053Z,8.10
2023-05-03T13:18:45.804Z,4.80
2023-05-03T13:19:45.801Z,6.90